Time;durP1;ratioP1;P1;durP2;ratioP2;P2;SDS_P1;SDS_P2;PMS_P1;PMS_P2;Temp;Humidity;BMP_temperature;BMP_pressure;BME280_temperature;BME280_humidity;BME280_pressure;Samples;Min_cycle;Max_cycle;Signal;HPM_P1;HPM_P2
2022/09/18 00:00:54;;;;;;;;;;;10.50;99.90;;;;;;4988089;28;19933;-82
2022/09/18 00:03:20;;;;;;;;;;;10.50;99.90;;;;;;4989101;28;19995;-83
2022/09/18 00:05:46;;;;;;;;;;;10.50;99.90;;;;;;4988576;28;19935;-84
2022/09/18 00:08:12;;;;;;;;;;;10.50;99.90;;;;;;4973217;28;19952;-84
2022/09/18 00:10:42;;;;;;;;;;;10.50;99.90;;;;;;4958042;28;19921;-88
2022/09/18 00:13:08;;;;;;;;;;;10.50;99.90;;;;;;4989070;28;19936;-83
2022/09/18 00:15:34;;;;;;;;;;;10.60;99.90;;;;;;4970132;28;19930;-84
2022/09/18 00:18:00;;;;;;;;;;;10.60;99.90;;;;;;4987476;28;19936;-81
2022/09/18 00:20:26;;;;;;;;;;;10.60;99.90;;;;;;4982306;28;19925;-83
2022/09/18 00:22:52;;;;;;;;;;;10.60;99.90;;;;;;4971679;28;20012;-84
2022/09/18 00:25:18;;;;;;;;;;;10.60;99.90;;;;;;4956616;28;19929;-83
2022/09/18 00:27:44;;;;;;;;;;;10.60;99.90;;;;;;4951870;28;19937;-81
2022/09/18 00:30:10;;;;;;;;;;;10.50;99.90;;;;;;4995407;28;19929;-81
2022/09/18 00:32:35;;;;;;;;;;;10.50;99.90;;;;;;4993890;28;19937;-80
2022/09/18 00:35:01;;;;;;;;;;;10.50;99.90;;;;;;4972753;28;19980;-81
2022/09/18 00:37:27;;;;;;;;;;;10.50;99.90;;;;;;4954807;28;20429;-82
2022/09/18 00:39:53;;;;;;;;;;;10.50;99.90;;;;;;4986604;28;19936;-81
2022/09/18 00:42:19;;;;;;;;;;;10.50;99.90;;;;;;4986986;28;19948;-82
2022/09/18 00:44:45;;;;;;;;;;;10.50;99.90;;;;;;5005379;28;19949;-81
2022/09/18 00:47:21;;;;;;;;;;;10.40;99.90;;;;;;5006041;28;20141;-82
2022/09/18 00:49:53;;;;;;;;;;;10.50;99.90;;;;;;4979723;28;20035;-83
2022/09/18 00:52:20;;;;;;;;;;;10.50;99.90;;;;;;5003860;28;19936;-84
2022/09/18 00:54:49;;;;;;;;;;;10.50;99.90;;;;;;4975643;28;20317;-82
2022/09/18 00:57:17;;;;;;;;;;;10.50;99.90;;;;;;4976282;28;19926;-80
2022/09/18 00:59:44;;;;;;;;;;;10.60;99.90;;;;;;4988748;28;19925;-82
2022/09/18 01:02:11;;;;;;;;;;;10.60;99.90;;;;;;4993147;28;19941;-88
2022/09/18 01:04:37;;;;;;;;;;;10.70;99.90;;;;;;4982409;28;19995;-81
2022/09/18 01:07:09;;;;;;;;;;;10.60;99.90;;;;;;4991890;28;20369;-80
2022/09/18 01:09:44;;;;;;;;;;;10.70;99.90;;;;;;4994612;28;19934;-81
2022/09/18 01:12:17;;;;;;;;;;;10.70;99.90;;;;;;4998133;28;19937;-84
2022/09/18 01:14:51;;;;;;;;;;;10.70;99.90;;;;;;4987832;28;19932;-80
2022/09/18 01:17:32;;;;;;;;;;;10.70;99.90;;;;;;5001412;28;19926;-80
2022/09/18 01:20:19;;;;;;;;;;;10.70;99.90;;;;;;5004343;28;20016;-81
2022/09/18 01:23:04;;;;;;;;;;;10.70;99.90;;;;;;4974851;28;20354;-80
2022/09/18 01:25:48;;;;;;;;;;;10.70;99.90;;;;;;4986157;28;19949;-81
2022/09/18 01:28:26;;;;;;;;;;;10.70;99.90;;;;;;4990653;28;19987;-78
2022/09/18 01:30:54;;;;;;;;;;;10.70;99.90;;;;;;4992620;28;20361;-81
2022/09/18 01:33:29;;;;;;;;;;;10.70;99.90;;;;;;4975290;28;19936;-84
2022/09/18 01:35:58;;;;;;;;;;;10.70;99.90;;;;;;4991997;28;20545;-82
2022/09/18 01:38:24;;;;;;;;;;;10.60;99.90;;;;;;4991409;28;19969;-84
2022/09/18 01:41:01;;;;;;;;;;;10.60;99.90;;;;;;4974458;28;20559;-80
2022/09/18 01:43:28;;;;;;;;;;;10.60;99.90;;;;;;4990643;28;19932;-82
2022/09/18 01:45:57;;;;;;;;;;;10.60;99.90;;;;;;4975052;28;19937;-81
2022/09/18 01:48:27;;;;;;;;;;;10.60;99.90;;;;;;4979390;28;19929;-78
2022/09/18 01:50:55;;;;;;;;;;;10.60;99.90;;;;;;4994683;28;19971;-80
2022/09/18 01:53:26;;;;;;;;;;;10.60;99.90;;;;;;4987556;28;19929;-83
2022/09/18 01:55:55;;;;;;;;;;;10.60;99.90;;;;;;4990013;28;19947;-81
2022/09/18 01:58:22;;;;;;;;;;;10.60;99.90;;;;;;4987758;28;20393;-82
2022/09/18 02:00:52;;;;;;;;;;;10.50;99.90;;;;;;4972085;28;20487;-82
2022/09/18 02:03:39;;;;;;;;;;;10.50;99.90;;;;;;4974416;28;20077;-81
2022/09/18 02:08:52;;;;;;;;;;;10.70;99.90;;;;;;5052185;23;19932;-85
2022/09/18 02:11:53;;;;;;;;;;;10.40;99.90;;;;;;4979468;28;19932;-85
2022/09/18 02:14:50;;;;;;;;;;;10.30;99.90;;;;;;4999163;28;20386;-80
2022/09/18 02:17:21;;;;;;;;;;;10.30;99.90;;;;;;4996220;28;20009;-84
2022/09/18 02:19:59;;;;;;;;;;;10.30;99.90;;;;;;4992750;28;20013;-87
2022/09/18 02:22:29;;;;;;;;;;;10.30;99.90;;;;;;4978495;28;19936;-85
2022/09/18 02:24:57;;;;;;;;;;;10.30;99.90;;;;;;4979324;28;19926;-77
2022/09/18 02:27:23;;;;;;;;;;;10.30;99.90;;;;;;4975699;28;19930;-77
2022/09/18 02:29:50;;;;;;;;;;;10.30;99.90;;;;;;4990702;28;19937;-77
2022/09/18 02:32:17;;;;;;;;;;;10.30;99.90;;;;;;4984309;28;19921;-78
2022/09/18 02:41:25;;;;;;;;;;;10.30;99.90;;;;;;4995317;28;19933;-78
2022/09/18 02:44:10;;;;;;;;;;;10.30;99.90;;;;;;4989783;28;20384;-77
2022/09/18 02:46:54;;;;;;;;;;;10.30;99.90;;;;;;4985962;28;19936;-86
2022/09/18 02:49:22;;;;;;;;;;;10.30;99.90;;;;;;4993137;28;19991;-85
2022/09/18 02:51:53;;;;;;;;;;;10.40;99.90;;;;;;4977461;28;20027;-83
2022/09/18 02:54:24;;;;;;;;;;;10.20;99.90;;;;;;4994612;28;20012;-85
2022/09/18 02:57:00;;;;;;;;;;;10.40;99.90;;;;;;4977192;28;19930;-81
2022/09/18 02:59:47;;;;;;;;;;;10.40;99.90;;;;;;4993152;28;20020;-78
2022/09/18 03:02:13;;;;;;;;;;;10.40;99.90;;;;;;4989109;28;19926;-80
2022/09/18 03:04:39;;;;;;;;;;;10.40;99.90;;;;;;4975297;28;19936;-78
2022/09/18 03:07:05;;;;;;;;;;;10.40;99.90;;;;;;4992225;28;20012;-80
2022/09/18 03:09:33;;;;;;;;;;;10.40;99.90;;;;;;4965469;28;19944;-80
2022/09/18 03:12:00;;;;;;;;;;;10.50;99.90;;;;;;4975555;28;20604;-79
2022/09/18 03:14:27;;;;;;;;;;;10.50;99.90;;;;;;4970285;28;20013;-78
2022/09/18 03:16:52;;;;;;;;;;;10.50;99.90;;;;;;4954916;28;20063;-79
2022/09/18 03:19:18;;;;;;;;;;;10.50;99.90;;;;;;4986084;28;19973;-78
2022/09/18 03:21:45;;;;;;;;;;;10.50;99.90;;;;;;4966811;28;19930;-77
2022/09/18 03:24:11;;;;;;;;;;;10.50;99.90;;;;;;4953711;28;20097;-79
2022/09/18 03:26:39;;;;;;;;;;;10.50;99.90;;;;;;4963372;28;19936;-77
2022/09/18 03:29:09;;;;;;;;;;;10.50;99.90;;;;;;4957354;28;20458;-79
2022/09/18 03:31:35;;;;;;;;;;;10.40;99.90;;;;;;4989714;28;20385;-84
2022/09/18 03:34:03;;;;;;;;;;;10.50;99.90;;;;;;4955285;28;19930;-79
2022/09/18 03:36:30;;;;;;;;;;;10.40;99.90;;;;;;4955659;28;19933;-82
2022/09/18 03:38:58;;;;;;;;;;;10.50;99.90;;;;;;4944425;28;19980;-87
2022/09/18 03:41:25;;;;;;;;;;;10.40;99.90;;;;;;4972906;28;19964;-85
2022/09/18 03:44:10;;;;;;;;;;;10.40;99.90;;;;;;4974053;28;19926;-88
2022/09/18 03:47:17;;;;;;;;;;;10.40;99.90;;;;;;4975893;28;20008;-88
2022/09/18 03:50:08;;;;;;;;;;;10.40;99.90;;;;;;4982493;28;20396;-91
2022/09/18 03:52:34;;;;;;;;;;;10.40;99.90;;;;;;4964161;28;19926;-89
2022/09/18 03:55:04;;;;;;;;;;;10.40;99.90;;;;;;4976474;28;20020;-92
2022/09/18 03:57:31;;;;;;;;;;;10.40;99.90;;;;;;4960053;28;19932;-92
2022/09/18 04:00:17;;;;;;;;;;;10.40;99.90;;;;;;4963954;28;20371;-91
2022/09/18 04:02:45;;;;;;;;;;;10.40;99.90;;;;;;4959092;28;19925;-86
2022/09/18 04:05:53;;;;;;;;;;;10.40;99.90;;;;;;4982475;28;19925;-79
2022/09/18 04:11:55;;;;;;;;;;;10.40;99.90;;;;;;4994060;28;19980;-89
2022/09/18 04:14:40;;;;;;;;;;;10.40;99.90;;;;;;4962840;28;19929;-89
2022/09/18 04:17:06;;;;;;;;;;;10.40;99.90;;;;;;4976953;28;19952;-89
2022/09/18 04:19:31;;;;;;;;;;;10.40;99.90;;;;;;4990959;28;20432;-90
2022/09/18 04:22:17;;;;;;;;;;;10.40;99.90;;;;;;4939125;28;20288;-89
2022/09/18 04:24:45;;;;;;;;;;;10.30;99.90;;;;;;4967250;28;19980;-88
2022/09/18 04:27:12;;;;;;;;;;;10.40;99.90;;;;;;4957439;28;20284;-91
2022/09/18 04:33:01;;;;;;;;;;;10.30;99.90;;;;;;4987468;28;19920;-85
2022/09/18 04:35:48;;;;;;;;;;;10.40;99.90;;;;;;4977401;28;19973;-92
2022/09/18 04:38:26;;;;;;;;;;;10.40;99.90;;;;;;4975299;28;19929;-85
2022/09/18 04:40:56;;;;;;;;;;;10.40;99.90;;;;;;4959838;28;19930;-85
2022/09/18 04:46:48;;;;;;;;;;;10.00;99.90;;;;;;4973693;28;19926;-89
2022/09/18 04:49:15;;;;;;;;;;;10.40;99.90;;;;;;4958886;28;20171;-84
2022/09/18 04:51:42;;;;;;;;;;;10.40;99.90;;;;;;4973480;28;19976;-84
2022/09/18 04:54:08;;;;;;;;;;;10.40;99.90;;;;;;4940631;28;19930;-79
2022/09/18 04:56:34;;;;;;;;;;;10.40;99.90;;;;;;4953156;28;20550;-80
2022/09/18 04:59:00;;;;;;;;;;;10.50;99.90;;;;;;4969336;28;19932;-79
2022/09/18 05:08:12;;;;;;;;;;;10.40;99.90;;;;;;4990113;28;19936;-86
2022/09/18 05:10:40;;;;;;;;;;;10.50;99.90;;;;;;4980327;28;19929;-88
2022/09/18 05:13:06;;;;;;;;;;;10.50;99.90;;;;;;4973260;28;20274;-86
2022/09/18 05:19:15;;;;;;;;;;;10.50;99.90;;;;;;5000967;28;19924;-82
2022/09/18 05:21:52;;;;;;;;;;;10.50;99.90;;;;;;4996768;28;19929;-85
2022/09/18 05:24:17;;;;;;;;;;;10.50;99.90;;;;;;4988453;28;20424;-84
2022/09/18 05:26:43;;;;;;;;;;;10.50;99.90;;;;;;4988896;28;19926;-85
2022/09/18 05:29:09;;;;;;;;;;;10.50;99.90;;;;;;4973756;28;19943;-85
2022/09/18 05:34:57;;;;;;;;;;;10.50;99.90;;;;;;4992883;28;19937;-86
2022/09/18 05:37:23;;;;;;;;;;;10.50;99.90;;;;;;4970547;28;19925;-86
2022/09/18 05:39:49;;;;;;;;;;;10.40;99.90;;;;;;4984888;28;20078;-84
2022/09/18 05:42:14;;;;;;;;;;;10.50;99.90;;;;;;4971509;28;19921;-85
2022/09/18 05:44:40;;;;;;;;;;;10.50;99.90;;;;;;4970905;28;19980;-87
2022/09/18 05:47:07;;;;;;;;;;;10.50;99.90;;;;;;4985335;28;19936;-86
2022/09/18 05:49:34;;;;;;;;;;;10.50;99.90;;;;;;4972174;28;20025;-84
2022/09/18 05:52:00;;;;;;;;;;;10.50;99.90;;;;;;4967933;28;20395;-85
2022/09/18 05:54:26;;;;;;;;;;;10.50;99.90;;;;;;4991017;28;19921;-89
2022/09/18 05:56:52;;;;;;;;;;;10.50;99.90;;;;;;4973956;28;20012;-88
2022/09/18 05:59:18;;;;;;;;;;;10.50;99.90;;;;;;4995873;28;20396;-85
2022/09/18 06:01:45;;;;;;;;;;;10.50;99.90;;;;;;4992257;28;19941;-88
2022/09/18 06:04:11;;;;;;;;;;;10.50;99.90;;;;;;4957480;28;19934;-88
2022/09/18 06:06:38;;;;;;;;;;;10.40;99.90;;;;;;4980207;28;19941;-87
2022/09/18 06:12:03;;;;;;;;;;;10.30;99.90;;;;;;5199353;23;19987;-84
2022/09/18 06:14:29;;;;;;;;;;;9.50;99.90;;;;;;4992779;28;19925;-85
2022/09/18 06:16:57;;;;;;;;;;;10.30;99.90;;;;;;4979083;28;20596;-83
2022/09/18 06:19:42;;;;;;;;;;;10.30;99.90;;;;;;5008661;28;20383;-83
2022/09/18 06:22:10;;;;;;;;;;;10.30;99.90;;;;;;5008903;28;19929;-84
2022/09/18 06:24:36;;;;;;;;;;;10.30;99.90;;;;;;4997152;28;19931;-86
2022/09/18 06:27:02;;;;;;;;;;;10.30;99.90;;;;;;4975891;28;19944;-85
2022/09/18 06:29:29;;;;;;;;;;;10.30;99.90;;;;;;4990398;28;20217;-83
2022/09/18 06:31:59;;;;;;;;;;;10.30;99.90;;;;;;4989206;28;19956;-92
2022/09/18 06:34:37;;;;;;;;;;;10.30;99.90;;;;;;4992330;28;19925;-87
2022/09/18 06:37:03;;;;;;;;;;;10.30;99.90;;;;;;4970803;28;19952;-86
2022/09/18 06:39:29;;;;;;;;;;;10.30;99.90;;;;;;4983209;28;19929;-84
2022/09/18 06:42:07;;;;;;;;;;;;;;;;;;;;;
2022/09/18 06:44:43;;;;;;;;;;;10.40;99.90;;;;;;5003281;28;19926;-85
2022/09/18 06:47:12;;;;;;;;;;;10.40;99.90;;;;;;4994212;28;19929;-85
2022/09/18 06:49:41;;;;;;;;;;;11.00;99.90;;;;;;4998502;28;20399;-84
2022/09/18 06:52:07;;;;;;;;;;;10.40;99.90;;;;;;4974687;28;19933;-87
2022/09/18 06:54:34;;;;;;;;;;;10.40;99.90;;;;;;4987324;28;19925;-86
2022/09/18 06:57:00;;;;;;;;;;;10.40;99.90;;;;;;4990828;28;19929;-85
2022/09/18 06:59:26;;;;;;;;;;;10.50;99.90;;;;;;4976581;28;19932;-86
2022/09/18 07:04:59;;;;;;;;;;;10.50;99.90;;;;;;5001676;28;20090;-85
2022/09/18 07:07:25;;;;;;;;;;;10.40;99.90;;;;;;4991816;28;19933;-82
2022/09/18 07:09:51;;;;;;;;;;;10.40;99.90;;;;;;4990802;28;19944;-83
2022/09/18 07:12:28;;;;;;;;;;;10.40;99.90;;;;;;5007035;28;20091;-84
2022/09/18 07:14:54;;;;;;;;;;;10.50;99.90;;;;;;4988359;28;20291;-79
2022/09/18 07:17:20;;;;;;;;;;;10.40;99.90;;;;;;4983035;28;19937;-85
2022/09/18 07:19:46;;;;;;;;;;;10.40;99.90;;;;;;4992587;28;19929;-82
2022/09/18 07:22:11;;;;;;;;;;;10.40;99.90;;;;;;4988889;28;20269;-82
2022/09/18 07:24:37;;;;;;;;;;;10.40;99.90;;;;;;4978507;28;20374;-81
2022/09/18 07:27:03;;;;;;;;;;;10.40;99.90;;;;;;4989447;28;19933;-81
2022/09/18 07:29:32;;;;;;;;;;;10.40;99.90;;;;;;4975671;28;19940;-81
2022/09/18 07:32:01;;;;;;;;;;;10.40;99.90;;;;;;5003327;28;19925;-80
2022/09/18 07:34:27;;;;;;;;;;;10.40;99.90;;;;;;4999625;28;19928;-82
2022/09/18 07:36:54;;;;;;;;;;;10.50;99.90;;;;;;4985076;28;20285;-80
2022/09/18 07:39:20;;;;;;;;;;;10.40;99.90;;;;;;4986784;28;20463;-82
2022/09/18 07:41:47;;;;;;;;;;;10.50;99.90;;;;;;5003484;28;19983;-80
2022/09/18 07:44:14;;;;;;;;;;;10.50;99.90;;;;;;4971106;28;19940;-81
2022/09/18 07:46:41;;;;;;;;;;;10.50;99.90;;;;;;4988491;28;20261;-80
2022/09/18 07:49:07;;;;;;;;;;;10.10;99.90;;;;;;4978617;28;19987;-79
2022/09/18 07:51:32;;;;;;;;;;;10.50;99.90;;;;;;4977160;28;20292;-81
2022/09/18 07:53:59;;;;;;;;;;;10.50;99.90;;;;;;4981936;28;20049;-80
2022/09/18 07:56:24;;;;;;;;;;;10.50;99.90;;;;;;4986701;28;19933;-81
2022/09/18 07:58:50;;;;;;;;;;;10.50;99.90;;;;;;4982340;28;19940;-81
2022/09/18 08:01:16;;;;;;;;;;;10.50;99.90;;;;;;4968415;28;19933;-81
2022/09/18 08:03:45;;;;;;;;;;;10.60;99.90;;;;;;4979663;28;20239;-82
2022/09/18 08:06:13;;;;;;;;;;;10.60;99.90;;;;;;4983608;28;19933;-81
2022/09/18 08:08:39;;;;;;;;;;;10.60;99.90;;;;;;4994826;28;19972;-81
2022/09/18 08:11:05;;;;;;;;;;;10.70;99.90;;;;;;4982576;28;20040;-81
2022/09/18 08:13:31;;;;;;;;;;;10.80;99.90;;;;;;4970550;28;19939;-80
2022/09/18 08:15:57;;;;;;;;;;;10.70;99.90;;;;;;4973175;28;20020;-83
2022/09/18 08:18:22;;;;;;;;;;;10.80;99.90;;;;;;4991603;28;19937;-81
2022/09/18 08:20:48;;;;;;;;;;;10.80;99.90;;;;;;4991191;28;20473;-81
2022/09/18 08:23:17;;;;;;;;;;;10.80;99.90;;;;;;4985285;28;19925;-84
2022/09/18 08:25:43;;;;;;;;;;;11.40;99.90;;;;;;5003758;28;19929;-81
2022/09/18 08:28:09;;;;;;;;;;;10.80;99.90;;;;;;4990750;28;19947;-81
2022/09/18 08:30:38;;;;;;;;;;;11.10;99.90;;;;;;4970940;28;19929;-79
2022/09/18 08:33:05;;;;;;;;;;;10.60;99.90;;;;;;4989904;28;19933;-84
2022/09/18 08:35:32;;;;;;;;;;;9.10;99.90;;;;;;5002893;28;19941;-81
2022/09/18 08:37:58;;;;;;;;;;;10.80;99.90;;;;;;4989441;28;19936;-83
2022/09/18 08:40:34;;;;;;;;;;;11.30;99.90;;;;;;4993082;28;19933;-81
2022/09/18 08:49:53;;;;;;;;;;;11.20;99.90;;;;;;5015437;28;19990;-84
2022/09/18 08:52:47;;;;;;;;;;;12.00;99.90;;;;;;4982670;28;19936;-85
2022/09/18 08:55:13;;;;;;;;;;;10.20;99.90;;;;;;4978798;28;19929;-82
2022/09/18 09:07:58;;;;;;;;;;;10.80;99.90;;;;;;4997422;28;19992;-80
2022/09/18 09:10:36;;;;;;;;;;;10.20;99.90;;;;;;4981945;28;19934;-79
2022/09/18 09:13:24;;;;;;;;;;;10.60;99.90;;;;;;4981099;28;19929;-80
2022/09/18 09:16:11;;;;;;;;;;;10.70;99.90;;;;;;4979850;28;20339;-79
2022/09/18 09:18:56;;;;;;;;;;;10.60;99.90;;;;;;4979632;28;19933;-81
2022/09/18 09:21:32;;;;;;;;;;;10.70;99.90;;;;;;4962655;28;19937;-82
2022/09/18 09:24:33;;;;;;;;;;;10.60;99.90;;;;;;4969066;28;20020;-81
2022/09/18 09:27:04;;;;;;;;;;;10.70;99.90;;;;;;5009095;23;19976;-81
2022/09/18 09:29:56;;;;;;;;;;;10.70;99.90;;;;;;4961607;28;19934;-81
2022/09/18 09:32:31;;;;;;;;;;;12.10;99.90;;;;;;4974648;28;19925;-80
2022/09/18 09:35:03;;;;;;;;;;;10.70;99.90;;;;;;4965518;28;19934;-81
2022/09/18 09:37:38;;;;;;;;;;;10.80;99.90;;;;;;4960067;28;19935;-81
2022/09/18 09:40:09;;;;;;;;;;;10.80;99.90;;;;;;4959899;28;20533;-82
2022/09/18 09:42:56;;;;;;;;;;;10.80;99.90;;;;;;4977494;28;20025;-80
2022/09/18 09:45:32;;;;;;;;;;;10.90;99.90;;;;;;4921485;28;20630;-83
2022/09/18 09:48:04;;;;;;;;;;;10.90;99.90;;;;;;4980080;28;19984;-86
2022/09/18 09:50:31;;;;;;;;;;;11.00;99.90;;;;;;4963891;28;20458;-81
2022/09/18 09:53:00;;;;;;;;;;;11.00;99.90;;;;;;4963007;28;19996;-84
2022/09/18 09:55:30;;;;;;;;;;;10.90;99.90;;;;;;4965383;28;19984;-83
2022/09/18 09:58:14;;;;;;;;;;;11.10;99.90;;;;;;4978358;28;19936;-81
2022/09/18 10:01:01;;;;;;;;;;;11.60;99.90;;;;;;4956160;28;19937;-80
2022/09/18 10:03:33;;;;;;;;;;;11.10;99.90;;;;;;4961107;28;19925;-81
2022/09/18 10:06:06;;;;;;;;;;;11.20;99.90;;;;;;4962519;28;19926;-83
2022/09/18 10:08:48;;;;;;;;;;;11.20;99.90;;;;;;4964133;28;20328;-81
2022/09/18 10:11:18;;;;;;;;;;;;;;;;;;4980164;28;19953;-81
2022/09/18 10:14:24;;;;;;;;;;;11.30;99.90;;;;;;4980157;28;19934;-82
2022/09/18 10:16:51;;;;;;;;;;;10.70;99.90;;;;;;4966878;28;20352;-81
2022/09/18 10:19:23;;;;;;;;;;;11.40;99.90;;;;;;4976454;28;19944;-83
2022/09/18 10:25:31;;;;;;;;;;;11.40;99.90;;;;;;4993060;28;19928;-82
2022/09/18 10:28:17;;;;;;;;;;;11.50;99.90;;;;;;5006988;28;19929;-82
2022/09/18 10:30:53;;;;;;;;;;;11.60;99.90;;;;;;4974703;28;19989;-81
2022/09/18 10:33:38;;;;;;;;;;;11.70;99.90;;;;;;4965025;28;20033;-82
2022/09/18 10:36:16;;;;;;;;;;;11.70;99.90;;;;;;4979694;28;20395;-81
2022/09/18 10:38:43;;;;;;;;;;;11.80;99.90;;;;;;4967749;28;19929;-83
2022/09/18 10:41:29;;;;;;;;;;;11.80;99.90;;;;;;4961869;28;20004;-82
2022/09/18 10:44:19;;;;;;;;;;;11.90;99.90;;;;;;4964717;28;19933;-81
2022/09/18 10:46:53;;;;;;;;;;;11.80;99.90;;;;;;4961085;28;20007;-81
2022/09/18 10:49:24;;;;;;;;;;;11.90;99.90;;;;;;4973274;28;20377;-82
2022/09/18 10:52:10;;;;;;;;;;;11.90;99.90;;;;;;4972516;28;20036;-84
2022/09/18 10:54:36;;;;;;;;;;;12.00;99.90;;;;;;4981037;28;20551;-81
2022/09/18 10:57:21;;;;;;;;;;;12.00;99.90;;;;;;4963892;28;19929;-84
2022/09/18 10:59:47;;;;;;;;;;;12.00;99.90;;;;;;4962618;28;19933;-80
2022/09/18 11:02:16;;;;;;;;;;;12.10;99.90;;;;;;4975113;28;20447;-82
2022/09/18 11:04:48;;;;;;;;;;;12.10;99.90;;;;;;4957428;28;20607;-82
2022/09/18 11:07:14;;;;;;;;;;;12.20;99.90;;;;;;4961599;28;20075;-86
2022/09/18 11:09:40;;;;;;;;;;;12.20;99.90;;;;;;4978608;28;19936;-82
2022/09/18 11:12:26;;;;;;;;;;;12.30;99.90;;;;;;4964877;28;20344;-82
2022/09/18 11:15:06;;;;;;;;;;;12.40;99.90;;;;;;4980098;28;19969;-80
2022/09/18 11:17:34;;;;;;;;;;;12.40;99.90;;;;;;4959422;28;20027;-83
2022/09/18 11:20:02;;;;;;;;;;;12.50;99.90;;;;;;4974086;28;19936;-82
2022/09/18 11:22:41;;;;;;;;;;;12.50;99.90;;;;;;4964006;28;20096;-79
2022/09/18 11:25:16;;;;;;;;;;;12.50;99.90;;;;;;4979875;28;19929;-81
2022/09/18 11:27:50;;;;;;;;;;;12.60;99.90;;;;;;4990435;28;20353;-87
2022/09/18 11:30:21;;;;;;;;;;;12.50;99.90;;;;;;4980202;28;20067;-78
2022/09/18 11:32:50;;;;;;;;;;;12.50;99.90;;;;;;4984367;28;19933;-82
2022/09/18 11:35:17;;;;;;;;;;;12.60;99.90;;;;;;4988872;28;20430;-79
2022/09/18 11:37:53;;;;;;;;;;;12.60;99.90;;;;;;4985290;28;19925;-80
2022/09/18 11:40:24;;;;;;;;;;;12.60;99.90;;;;;;5001715;28;19929;-80
2022/09/18 11:42:51;;;;;;;;;;;12.80;99.90;;;;;;4981911;28;19936;-80
2022/09/18 11:45:36;;;;;;;;;;;12.70;99.90;;;;;;5004145;28;20180;-83
2022/09/18 11:48:19;;;;;;;;;;;12.80;99.90;;;;;;5004550;28;19926;-80
2022/09/18 11:50:47;;;;;;;;;;;12.80;99.90;;;;;;4995688;28;19937;-78
2022/09/18 11:53:16;;;;;;;;;;;12.80;99.90;;;;;;4977032;28;19937;-80
2022/09/18 11:55:45;;;;;;;;;;;12.90;99.90;;;;;;4984066;28;19976;-80
2022/09/18 11:58:15;;;;;;;;;;;12.90;99.90;;;;;;4986719;28;20514;-78
2022/09/18 12:01:06;;;;;;;;;;;12.90;99.90;;;;;;5000355;28;20012;-78
2022/09/18 12:03:39;;;;;;;;;;;12.90;99.90;;;;;;4990102;28;19961;-80
2022/09/18 12:06:07;;;;;;;;;;;13.00;99.90;;;;;;5003088;28;19929;-80
2022/09/18 12:08:56;;;;;;;;;;;13.00;99.90;;;;;;4986301;28;20334;-78
2022/09/18 12:11:30;;;;;;;;;;;13.10;99.90;;;;;;4994773;28;20407;-82
2022/09/18 12:14:08;;;;;;;;;;;13.20;99.90;;;;;;4986711;28;19932;-80
2022/09/18 12:16:46;;;;;;;;;;;13.30;99.90;;;;;;4983697;28;20656;-81
2022/09/18 12:19:19;;;;;;;;;;;13.50;99.90;;;;;;4978748;28;20270;-80
2022/09/18 12:21:52;;;;;;;;;;;13.50;99.90;;;;;;4978981;28;20068;-79
2022/09/18 12:24:18;;;;;;;;;;;13.60;99.90;;;;;;5001553;28;19960;-78
2022/09/18 12:26:52;;;;;;;;;;;13.50;99.90;;;;;;4965882;28;19930;-79
2022/09/18 12:29:34;;;;;;;;;;;13.60;99.90;;;;;;4973451;28;20310;-80
2022/09/18 12:32:03;;;;;;;;;;;13.60;99.90;;;;;;4995046;28;19984;-79
2022/09/18 12:34:42;;;;;;;;;;;13.60;99.90;;;;;;4996761;28;19975;-78
2022/09/18 12:37:17;;;;;;;;;;;13.60;99.90;;;;;;4977070;28;19940;-81
2022/09/18 12:40:15;;;;;;;;;;;13.60;99.90;;;;;;4980419;28;19929;-79
2022/09/18 12:42:44;;;;;;;;;;;13.60;99.90;;;;;;4947146;28;20879;-79
2022/09/18 12:45:25;;;;;;;;;;;13.70;99.90;;;;;;4980089;28;19937;-80
2022/09/18 12:48:04;;;;;;;;;;;13.70;99.90;;;;;;4997464;28;20048;-80
2022/09/18 12:50:36;;;;;;;;;;;13.70;99.90;;;;;;4996573;28;19925;-79
2022/09/18 12:53:15;;;;;;;;;;;13.70;99.90;;;;;;4996693;28;19933;-79
2022/09/18 12:56:01;;;;;;;;;;;13.80;99.90;;;;;;4979295;28;19925;-81
2022/09/18 12:58:50;;;;;;;;;;;13.70;99.90;;;;;;4997822;28;19936;-82
2022/09/18 13:01:36;;;;;;;;;;;13.60;99.90;;;;;;4994989;28;19948;-81
2022/09/18 13:04:20;;;;;;;;;;;13.40;99.90;;;;;;4997563;28;19930;-80
2022/09/18 13:06:49;;;;;;;;;;;13.00;99.90;;;;;;4980527;28;20420;-80
2022/09/18 13:09:22;;;;;;;;;;;12.60;99.90;;;;;;4987642;28;19930;-80
2022/09/18 13:11:50;;;;;;;;;;;12.60;99.90;;;;;;4979900;28;19940;-79
2022/09/18 13:14:24;;;;;;;;;;;12.70;99.90;;;;;;4999934;28;19969;-78
2022/09/18 13:16:50;;;;;;;;;;;12.80;99.90;;;;;;4973894;28;19936;-81
2022/09/18 13:19:16;;;;;;;;;;;12.90;99.90;;;;;;4977569;28;19937;-79
2022/09/18 13:21:43;;;;;;;;;;;13.00;99.90;;;;;;4978079;28;19936;-79
2022/09/18 13:24:14;;;;;;;;;;;13.00;99.90;;;;;;4981797;28;19930;-83
2022/09/18 13:26:41;;;;;;;;;;;12.70;99.90;;;;;;4995270;28;19930;-79
2022/09/18 13:29:26;;;;;;;;;;;12.60;99.90;;;;;;4964419;28;19949;-81
2022/09/18 13:31:54;;;;;;;;;;;12.40;99.90;;;;;;4991503;28;20412;-79
2022/09/18 13:34:21;;;;;;;;;;;12.30;99.90;;;;;;4976225;28;19933;-81
2022/09/18 13:36:58;;;;;;;;;;;12.20;99.90;;;;;;4980076;28;20026;-79
2022/09/18 13:39:27;;;;;;;;;;;12.10;99.90;;;;;;4981551;28;19941;-78
2022/09/18 13:41:56;;;;;;;;;;;12.10;99.90;;;;;;4978307;28;20282;-77
2022/09/18 13:44:35;;;;;;;;;;;12.10;99.90;;;;;;4980600;28;20462;-79
2022/09/18 13:47:12;;;;;;;;;;;12.10;99.90;;;;;;4973650;28;21068;-78
2022/09/18 13:49:43;;;;;;;;;;;12.10;99.90;;;;;;4995039;28;20412;-79
2022/09/18 13:52:40;;;;;;;;;;;12.20;99.90;;;;;;4980630;28;19929;-79
2022/09/18 13:55:12;;;;;;;;;;;12.20;99.90;;;;;;4995599;28;20015;-78
2022/09/18 13:57:42;;;;;;;;;;;12.20;99.90;;;;;;4979602;28;19941;-79
2022/09/18 14:00:20;;;;;;;;;;;12.90;99.90;;;;;;4979562;28;19933;-77
2022/09/18 14:02:48;;;;;;;;;;;12.30;99.90;;;;;;4981500;28;20602;-76
2022/09/18 14:05:31;;;;;;;;;;;12.30;99.90;;;;;;4960032;28;19930;-79
2022/09/18 14:08:02;;;;;;;;;;;12.30;99.90;;;;;;4981340;28;19992;-76
2022/09/18 14:10:37;;;;;;;;;;;12.30;99.90;;;;;;4982148;28;20104;-78
2022/09/18 14:13:06;;;;;;;;;;;12.30;99.90;;;;;;4982602;28;20407;-78
2022/09/18 14:15:33;;;;;;;;;;;12.30;99.90;;;;;;4982811;28;20317;-76
2022/09/18 14:18:05;;;;;;;;;;;12.40;99.90;;;;;;4981805;28;19955;-79
2022/09/18 14:20:34;;;;;;;;;;;12.40;99.90;;;;;;4993512;28;19933;-77
2022/09/18 14:23:19;;;;;;;;;;;12.50;99.90;;;;;;4981743;28;20428;-77
2022/09/18 14:25:46;;;;;;;;;;;12.60;99.90;;;;;;4981531;28;19930;-79
2022/09/18 14:28:20;;;;;;;;;;;12.80;99.90;;;;;;4981561;28;20007;-80
2022/09/18 14:31:06;;;;;;;;;;;13.00;99.90;;;;;;4978270;28;19972;-81
2022/09/18 14:33:33;;;;;;;;;;;13.20;99.90;;;;;;4983329;28;19929;-78
2022/09/18 14:36:03;;;;;;;;;;;13.50;99.90;;;;;;4968166;28;19925;-80
2022/09/18 14:38:33;;;;;;;;;;;13.70;99.90;;;;;;4998595;28;19930;-81
2022/09/18 14:41:17;;;;;;;;;;;13.80;99.90;;;;;;4998193;28;20385;-81
2022/09/18 14:43:48;;;;;;;;;;;13.80;99.90;;;;;;4998920;28;20567;-79
2022/09/18 14:46:22;;;;;;;;;;;13.30;99.90;;;;;;4982912;28;20546;-79
2022/09/18 14:48:58;;;;;;;;;;;13.90;99.90;;;;;;4980650;28;19933;-80
2022/09/18 14:51:43;;;;;;;;;;;13.90;99.90;;;;;;4982462;28;20041;-79
2022/09/18 14:54:17;;;;;;;;;;;14.00;99.90;;;;;;4996870;28;20045;-81
2022/09/18 14:56:43;;;;;;;;;;;13.90;99.90;;;;;;4981773;28;20379;-79
2022/09/18 14:59:14;;;;;;;;;;;13.70;99.90;;;;;;4983550;28;19930;-81
2022/09/18 15:01:40;;;;;;;;;;;13.60;99.90;;;;;;4991963;28;19930;-80
2022/09/18 15:04:11;;;;;;;;;;;13.50;99.90;;;;;;4964847;28;20003;-79
2022/09/18 15:06:44;;;;;;;;;;;13.50;99.90;;;;;;4998078;28;20608;-80
2022/09/18 15:09:12;;;;;;;;;;;13.50;99.90;;;;;;4995672;28;19960;-80
2022/09/18 15:11:44;;;;;;;;;;;13.40;99.90;;;;;;4999159;28;19933;-80
2022/09/18 15:14:31;;;;;;;;;;;13.40;99.90;;;;;;4997727;28;20625;-79
2022/09/18 15:16:57;;;;;;;;;;;;;;;;;;4982450;28;20304;-79
2022/09/18 15:19:23;;;;;;;;;;;13.50;99.90;;;;;;4977525;28;19961;-78
2022/09/18 15:21:49;;;;;;;;;;;13.20;99.90;;;;;;4979666;28;20499;-78
2022/09/18 15:24:16;;;;;;;;;;;13.30;99.90;;;;;;4998233;28;20296;-79
2022/09/18 15:26:43;;;;;;;;;;;13.50;99.90;;;;;;4979384;28;20303;-79
2022/09/18 15:29:20;;;;;;;;;;;13.50;99.90;;;;;;4991745;28;19937;-81
2022/09/18 15:31:49;;;;;;;;;;;13.60;99.90;;;;;;4993328;28;19929;-84
2022/09/18 15:34:23;;;;;;;;;;;13.70;99.90;;;;;;4992083;28;19933;-78
2022/09/18 15:37:00;;;;;;;;;;;13.60;99.90;;;;;;4981330;28;19975;-79
2022/09/18 15:39:30;;;;;;;;;;;13.50;99.90;;;;;;4980303;28;20037;-77
2022/09/18 15:42:01;;;;;;;;;;;13.50;99.90;;;;;;4978131;28;19944;-78
2022/09/18 15:44:39;;;;;;;;;;;13.50;99.90;;;;;;4997607;28;19988;-80
2022/09/18 15:47:24;;;;;;;;;;;13.40;99.90;;;;;;4981053;28;20356;-78